Flight Track Log - Related Links

Times and Time Zones

All times are in EDT time to prevent confusion due to time zone crossing. See the SWA1015 flight status page for this flight to view local times or setup timezone preferences in your user account.

Time Position Orientation Groundspeed Altitude Reporting Facility
EDT Latitude Longitude Course Direction KTS MPH feet Rate Location/Type
Tue 11:22:58 AM 37.3833 -121.9500 141° Southeast 145 167 1,900  Level Northern Cal TRACON
Tue 11:23:58 AM 37.4167 -121.9833 322° Northwest 185 213 4,300 1,550 Climbing Northern Cal TRACON
Tue 11:24:58 AM 37.4333 -121.9167 73° East 224 258 5,000 450 Climbing Northern Cal TRACON
Tue 11:25:58 AM 37.3833 -121.8500 133° Southeast 248 285 5,200 1,600 Climbing Northern Cal TRACON
Tue 11:26:58 AM 37.3333 -121.8000 142° Southeast 251 289 8,200 2,805 Climbing Northern Cal TRACON
Tue 11:27:15 AM 37.3222 -121.7817 127° Southeast 249 287 8,800 2,278 Climbing Oakland Center
Tue 11:28:00 AM 37.2244 -121.1573 141° Southeast  Level Estimated
Tue 11:28:17 AM 37.2542 -121.7028 137° Southeast 330 380 11,200  Level Oakland Center
Tue 11:29:18 AM 37.1758 -121.6144 138° Southeast 375 432 14,500 3,295 Climbing Oakland Center
Tue 11:30:19 AM 37.0842 -121.5094 138° Southeast 401 461 17,900 2,927 Climbing Oakland Center
Tue 11:31:21 AM 36.9992 -121.4200 140° Southeast 418 481 20,500 2,537 Climbing Oakland Center
Tue 11:32:22 AM 36.9072 -121.3147 138° Southeast 444 511 23,100 2,508 Climbing Oakland Center
Tue 11:33:23 AM 36.8047 -121.2081 140° Southeast 458 527 25,600 2,244 Climbing Oakland Center
Tue 11:34:25 AM 36.7053 -121.1006 139° Southeast 472 543 27,700 2,000 Climbing Oakland Center
Tue 11:35:26 AM 36.6025 -120.9894 139° Southeast 487 560 29,700 1,820 Climbing Oakland Center
Tue 11:36:27 AM 36.4969 -120.8758 139° Southeast 499 574 31,400 1,707 Climbing Oakland Center
Tue 11:37:29 AM 36.4069 -120.7419 130° Southeast 509 586 33,200 1,756 Climbing Oakland Center
Tue 11:38:30 AM 36.3200 -120.6092 129° Southeast 499 574 35,000 1,869 Climbing Oakland Center
Tue 11:39:31 AM 36.2169 -120.4453 128° Southeast 504 580 37,000 1,426 Climbing Oakland Center
Tue 11:40:32 AM 36.1286 -120.3083 129° Southeast 507 583 37,900 878 Climbing Oakland Center
Tue 11:41:34 AM 36.0392 -120.1708 129° Southeast 511 588 38,800 488 Climbing Oakland Center
Tue 11:42:35 AM 35.9500 -120.0344 129° Southeast 509 586 38,900 49 Climbing Oakland Center
Tue 11:43:36 AM 35.8600 -119.8956 129° Southeast 515 593 38,900  Level Oakland Center
Tue 11:44:38 AM 35.7703 -119.7575 129° Southeast 513 590 38,900  Level Oakland Center
Tue 11:45:39 AM 35.6772 -119.6167 129° Southeast 523 602 38,900  Level Oakland Center
Tue 11:46:40 AM 35.5850 -119.4767 129° Southeast 526 605 38,900  Level Oakland Center
Tue 11:47:41 AM 35.4928 -119.3358 129° Southeast 527 606 38,900  Level Oakland Center
Tue 11:48:43 AM 35.4003 -119.1958 129° Southeast 527 606 38,900  Level Oakland Center
Tue 11:49:44 AM 35.3067 -119.0575 130° Southeast 527 606 38,900  Level Oakland Center
Tue 11:50:45 AM 35.2131 -118.9200 130° Southeast 525 604 38,900  Level Oakland Center
Tue 11:51:57 AM 35.1017 -118.7561 130° Southeast 527 606 38,900  Level Los Angeles Center
Tue 11:53:00 AM 35.0100 -118.6200 129° Southeast 522 601 38,900 49 Level Los Angeles Center
Tue 11:54:00 AM 34.9131 -118.4756 129° Southeast 519 597 39,000 49 Climbing Los Angeles Center
Tue 11:55:03 AM 34.8081 -118.3222 130° Southeast 524 603 39,000  Level Los Angeles Center
Tue 11:56:04 AM 34.7164 -118.1886 130° Southeast 521 600 39,000  Level Los Angeles Center
Tue 11:57:07 AM 34.6314 -118.0478 126° Southeast 530 610 39,000  Level Los Angeles Center
Tue 11:58:08 AM 34.5797 -117.8914 112° Southeast 511 588 39,000  Level Los Angeles Center
Tue 11:59:12 AM 34.5233 -117.7044 110° East 500 575 39,000  Level Los Angeles Center
Tue 12:00:13 PM 34.4775 -117.5522 110° East 489 563 39,000  Level Los Angeles Center
Tue 12:01:16 PM 34.4325 -117.4011 110° East 483 556 39,000  Level Los Angeles Center
Tue 12:02:17 PM 34.3850 -117.2417 110° East 479 551 39,000  Level Los Angeles Center
Tue 12:03:20 PM 34.3408 -117.0997 111° Southeast 484 557 39,000  Level Los Angeles Center
Tue 12:04:22 PM 34.2836 -116.9178 111° Southeast 485 558 39,000  Level Los Angeles Center
Tue 12:05:23 PM 34.2375 -116.7628 110° East 491 565 39,000  Level Los Angeles Center
Tue 12:06:27 PM 34.1883 -116.6131 112° Southeast 481 554 39,000  Level Los Angeles Center
Tue 12:07:28 PM 34.1442 -116.4589 109° East 485 558 39,000 -48 Level Los Angeles Center
Tue 12:08:31 PM 34.0917 -116.2967 111° Southeast 478 550 38,900 -48 Descending Los Angeles Center
Tue 12:09:32 PM 34.0433 -116.1461 111° Southeast 480 552 38,900  Level Los Angeles Center
Tue 12:10:33 PM 33.9978 -115.9981 110° East 473 544 38,900  Level Los Angeles Center
Tue 12:11:37 PM 33.9497 -115.8483 111° Southeast 476 548 38,900  Level Los Angeles Center
Tue 12:12:38 PM 33.8922 -115.6714 111° Southeast 475 547 38,900  Level Los Angeles Center
Tue 12:13:41 PM 33.8433 -115.5197 111° Southeast 486 559 38,900  Level Los Angeles Center
Tue 12:14:42 PM 33.7944 -115.3717 112° Southeast 478 550 38,900  Level Los Angeles Center
Tue 12:15:46 PM 33.7464 -115.2250 111° Southeast 474 545 38,900  Level Los Angeles Center
Tue 12:16:46 PM 33.6989 -115.0775 111° Southeast 474 545 38,900  Level Los Angeles Center
Tue 12:17:49 PM 33.6494 -114.9303 112° Southeast 475 547 38,900  Level Los Angeles Center
Tue 12:18:51 PM 33.6042 -114.7839 110° East 474 545 38,900  Level Los Angeles Center
Tue 12:19:55 PM 33.5847 -114.5994 97° East 465 535 38,900  Level Los Angeles Center
Tue 12:20:56 PM 33.5703 -114.4378 96° East 480 552 38,900  Level Los Angeles Center
Tue 12:21:57 PM 33.5553 -114.2772 96° East 485 558 38,900 48 Level Los Angeles Center
Tue 12:23:00 PM 33.5414 -114.1469 97° East 489 563 39,000  Climbing Los Angeles Center
Tue 12:24:02 PM 33.5139 -113.9542 100° East 490 564 38,900 -49 Descending Los Angeles Center
Tue 12:25:03 PM 33.4636 -113.7653 108° East 497 572 38,900 47 Level Los Angeles Center
Tue 12:26:09 PM 33.4297 -113.6181 105° East 483 556 39,000 47 Climbing Albuquerque Center
Tue 12:27:11 PM 33.3919 -113.4636 106° East 484 557 39,000  Level Albuquerque Center
Tue 12:28:13 PM 33.3458 -113.2786 107° East 486 559 39,000  Level Albuquerque Center
Tue 12:29:14 PM 33.3075 -113.1242 107° East 487 560 39,000  Level Albuquerque Center
Tue 12:30:16 PM 33.2686 -112.9703 107° East 486 559 39,000  Level Albuquerque Center
Tue 12:31:18 PM 33.2308 -112.8172 106° East 484 557 39,000  Level Albuquerque Center
Tue 12:32:20 PM 33.1914 -112.6636 107° East 485 558 39,000 194 Level Albuquerque Center
Tue 12:33:22 PM 33.1511 -112.5072 107° East 494 568 39,400 919 Climbing Albuquerque Center
Tue 12:34:24 PM 33.0992 -112.3075 107° East 501 577 40,900 774 Climbing Albuquerque Center
Tue 12:35:26 PM 33.0625 -112.1619 107° East 496 571 41,000 48 Climbing Albuquerque Center
Tue 12:36:28 PM 33.0225 -112.0064 107° East 494 568 41,000  Level Albuquerque Center
Tue 12:37:30 PM 32.9822 -111.8517 107° East 493 567 41,000  Level Albuquerque Center
Tue 12:38:32 PM 32.9411 -111.6983 108° East 491 565 41,000  Level Albuquerque Center
Tue 12:39:34 PM 32.8925 -111.5136 107° East 491 565 41,000  Level Albuquerque Center
Tue 12:40:36 PM 32.8522 -111.3606 107° East 488 562 41,000  Level Albuquerque Center
Tue 12:41:37 PM 32.8108 -111.2089 108° East 486 559 41,000  Level Albuquerque Center
Tue 12:42:39 PM 32.7700 -111.0569 108° East 486 559 41,000  Level Albuquerque Center
Tue 12:43:41 PM 32.7289 -110.9042 108° East 487 560 41,000  Level Albuquerque Center
Tue 12:44:43 PM 32.6883 -110.7522 108° East 486 559 41,000  Level Albuquerque Center
Tue 12:45:45 PM 32.6375 -110.5692 108° East 487 560 41,000  Level Albuquerque Center
Tue 12:46:47 PM 32.5947 -110.4161 108° East 489 563 41,000  Level Albuquerque Center
Tue 12:47:49 PM 32.5547 -110.2733 108° East 498 573 41,000  Level Albuquerque Center
Tue 12:48:51 PM 32.5031 -110.0850 108° East 505 581 41,000  Level Albuquerque Center
Tue 12:49:53 PM 32.4594 -109.9294 108° East 504 580 41,000  Level Albuquerque Center
Tue 12:50:54 PM 32.4250 -109.7689 104° East 510 587 41,000  Level Albuquerque Center
Tue 12:51:56 PM 32.3969 -109.6031 101° East 522 601 41,000  Level Albuquerque Center
Tue 12:52:58 PM 32.3714 -109.4386 100° East 517 595 41,000  Level Albuquerque Center
Tue 12:54:00 PM 32.3386 -109.2397 101° East 521 600 41,000  Level Albuquerque Center
Tue 12:55:02 PM 32.3111 -109.0725 101° East 525 604 41,000  Level Albuquerque Center
Tue 12:56:04 PM 32.2831 -108.9069 101° East 524 603 41,000  Level Albuquerque Center
Tue 12:57:06 PM 32.2547 -108.7428 101° East 522 601 41,000  Level Albuquerque Center
Tue 12:58:08 PM 32.2211 -108.5397 101° East 526 605 41,000 -48 Level Albuquerque Center
Tue 12:59:10 PM 32.1917 -108.3681 101° East 528 608 40,900  Descending Albuquerque Center
Tue 01:00:11 PM 32.1639 -108.2044 101° East 527 606 41,000  Climbing Albuquerque Center
Tue 01:01:13 PM 32.1339 -108.0303 101° East 527 606 40,900 -48 Descending Albuquerque Center
Tue 01:02:15 PM 32.1047 -107.8633 102° East 524 603 40,900  Level Albuquerque Center
Tue 01:03:17 PM 32.0756 -107.6956 102° East 525 604 40,900  Level Albuquerque Center
Tue 01:04:19 PM 32.0403 -107.4967 102° East 522 601 40,900  Level Albuquerque Center
Tue 01:05:20 PM 32.0114 -107.3292 101° East 525 604 40,900  Level Albuquerque Center
Tue 01:06:22 PM 31.9814 -107.1647 102° East 522 601 40,900  Level Albuquerque Center
Tue 01:07:24 PM 31.9519 -107.0022 102° East 515 593 40,900  Level Albuquerque Center
Tue 01:08:26 PM 31.9242 -106.8486 102° East 491 565 40,900  Level Albuquerque Center
Tue 01:09:28 PM 31.8886 -106.6653 103° East 483 556 40,900  Level Albuquerque Center
Tue 01:10:30 PM 31.8608 -106.5181 102° East 495 570 40,900  Level Albuquerque Center
Tue 01:11:31 PM 31.8311 -106.3556 102° East 505 581 40,900  Level Albuquerque Center
Tue 01:12:33 PM 31.8056 -106.1933 100° East 501 577 40,900  Level Albuquerque Center
Tue 01:13:35 PM 31.7847 -106.0294 98° East 507 583 40,900  Level Albuquerque Center
Tue 01:14:37 PM 31.7608 -105.8358 98° East 499 574 40,900  Level Albuquerque Center
Tue 01:15:39 PM 31.7414 -105.6725 98° East 502 578 40,900  Level Albuquerque Center
Tue 01:16:41 PM 31.7214 -105.5083 98° East 505 581 40,900  Level Albuquerque Center
Tue 01:17:43 PM 31.7017 -105.3456 98° East 503 579 40,900  Level Albuquerque Center
Tue 01:18:45 PM 31.6808 -105.1792 98° East 503 579 40,900  Level Albuquerque Center
Tue 01:19:47 PM 31.6611 -105.0186 98° East 504 580 40,900  Level Albuquerque Center
Tue 01:20:48 PM 31.6406 -104.8564 98° East 504 580 40,900 49 Level Albuquerque Center
Tue 01:21:50 PM 31.6147 -104.6642 99° East 500 575 41,000  Climbing Albuquerque Center
Tue 01:22:52 PM 31.5950 -104.5044 98° East 497 572 40,900 -48 Descending Albuquerque Center
Tue 01:23:54 PM 31.5744 -104.3472 99° East 493 567 40,900  Level Albuquerque Center
Tue 01:24:56 PM 31.5542 -104.1936 99° East 483 556 40,900  Level Albuquerque Center
Tue 01:25:58 PM 31.5350 -104.0372 98° East 483 556 40,900  Level Albuquerque Center
Tue 01:27:00 PM 31.5119 -103.8800 100° East 487 560 40,900  Level Albuquerque Center
Tue 01:28:01 PM 31.4867 -103.6961 99° East 485 558 40,900  Level Albuquerque Center
Tue 01:29:03 PM 31.4644 -103.5378 99° East 491 565 40,900  Level Albuquerque Center
Tue 01:30:05 PM 31.4456 -103.3794 98° East 491 565 40,900  Level Albuquerque Center
Tue 01:31:07 PM 31.4256 -103.2192 98° East 496 571 40,900  Level Albuquerque Center
Tue 01:32:09 PM 31.4056 -103.0581 98° East 500 575 40,900  Level Albuquerque Center
Tue 01:33:11 PM 31.3847 -102.8969 99° East 503 579 40,900 48 Level Albuquerque Center
Tue 01:34:13 PM 31.3592 -102.7047 99° East 500 575 41,000  Climbing Albuquerque Center
Tue 01:35:15 PM 31.3386 -102.5422 98° East 504 580 40,900  Descending Albuquerque Center
Tue 01:36:16 PM 31.3197 -102.3917 98° East 510 587 41,000 49 Climbing Albuquerque Center
Tue 01:37:18 PM 31.2989 -102.2331 99° East 502 578 41,000  Level Albuquerque Center
Tue 01:38:20 PM 31.2731 -102.0422 99° East 498 573 41,000 -48 Level Albuquerque Center
Tue 01:39:22 PM 31.2522 -101.8844 99° East 497 572 40,900  Descending Albuquerque Center
Tue 01:40:24 PM 31.2317 -101.7267 99° East 495 570 41,000  Climbing Albuquerque Center
Tue 01:41:22 PM 31.2086 -101.5669 100° East 498 573 40,900 -50 Descending Houston Center
Tue 01:42:24 PM 31.1875 -101.4069 99° East 499 574 40,900  Level Houston Center
Tue 01:43:26 PM 31.1642 -101.2472 100° East 498 573 40,900  Level Houston Center
Tue 01:44:27 PM 31.1433 -101.0872 99° East 498 573 40,900  Level Houston Center
Tue 01:45:29 PM 31.1186 -100.9269 100° East 500 575 40,900  Level Houston Center
Tue 01:46:31 PM 31.0975 -100.7678 99° East 494 568 40,900  Level Houston Center
Tue 01:47:33 PM 31.0742 -100.6069 100° East 501 577 40,900  Level Houston Center
Tue 01:48:35 PM 31.0450 -100.4144 100° East 502 578 40,900  Level Houston Center
Tue 01:49:37 PM 31.0219 -100.2536 99° East 501 577 40,900  Level Houston Center
Tue 01:50:38 PM 30.9989 -100.0936 100° East 497 572 40,900 -780 Level Houston Center
Tue 01:51:40 PM 30.9747 -99.9364 100° East 495 570 39,300 -2,032 Descending Houston Center
Tue 01:52:42 PM 30.9514 -99.7778 100° East 495 570 36,700 -2,516 Descending Houston Center
Tue 01:53:44 PM 30.9278 -99.6219 100° East 489 563 34,100 -2,419 Descending Houston Center
Tue 01:54:46 PM 30.9050 -99.4686 100° East 480 552 31,700 -2,439 Descending Houston Center
Tue 01:55:47 PM 30.8744 -99.2925 101° East 461 531 29,100 -2,146 Descending Houston Center
Tue 01:56:49 PM 30.8550 -99.1550 99° East 436 502 27,300 -1,694 Descending Houston Center
Tue 01:57:51 PM 30.8358 -99.0375 101° East 417 480 25,600 -1,984 Descending Houston Center
Tue 01:58:53 PM 30.8114 -98.8878 101° East 401 461 23,200 -2,081 Descending Houston Center
Tue 01:59:55 PM 30.7928 -98.7636 100° East 389 448 21,300 -1,887 Descending Houston Center
Tue 02:00:57 PM 30.7808 -98.6419 96° East 378 435 19,300 -1,984 Descending Houston Center
Tue 02:01:59 PM 30.7681 -98.5242 97° East 367 422 17,200 -1,887 Descending Houston Center
Tue 02:03:01 PM 30.7564 -98.4097 97° East 356 410 15,400 -1,790 Descending Houston Center
Tue 02:04:03 PM 30.7442 -98.2969 97° East 350 403 13,500 -1,790 Descending Houston Center
Tue 02:05:05 PM 30.7328 -98.1861 97° East 344 396 11,700 -1,694 Descending Houston Center
Tue 02:06:07 PM 30.7128 -98.0656 101° East 330 380 10,000 -1,548 Descending Houston Center
Tue 02:07:09 PM 30.6586 -97.9919 131° Southeast 302 348 8,500 -1,597 Descending Houston Center
Tue 02:08:11 PM 30.6025 -97.9167 131° Southeast 303 349 6,700 -1,694 Descending Houston Center
Tue 02:09:13 PM 30.5403 -97.8536 139° Southeast 298 343 5,000 -1,452 Descending Houston Center
Tue 02:10:15 PM 30.4828 -97.8011 142° Southeast 276 318 3,700 -968 Descending Houston Center
Tue 02:11:17 PM 30.4322 -97.7528 140° Southeast 255 293 3,000 -336 Descending Houston Center
Tue 02:12:20 PM 30.3861 -97.7117 142° Southeast 204 235 3,000  Level Houston Center
Tue 02:13:22 PM 30.3519 -97.6822 143° Southeast 172 198 3,000 -242 Level Houston Center
Tue 02:14:24 PM 30.3147 -97.6803 177° South 145 167 2,500 -532 Descending Houston Center
Tue 02:15:26 PM 30.2794 -97.6811 181° South 129 148 1,900 -629 Descending Houston Center
Tue 02:16:28 PM 30.2433 -97.6797 178° South 128 147 1,200 -387 Descending Houston Center
Tue 02:17:30 PM 30.2092 -97.6786 178° South 128 147 1,100 -97 Descending Houston Center
Tue 02:19:00 PM 30.1945 -97.6699 221° Southwest  Level Estimated

Login

Don't have an account? Register now (free) for customized features, flight alerts, and more!